sensor_id;sensor_type;location;lat;lon;timestamp;pressure;altitude;pressure_sealevel;temperature;humidity
41250;BME280;26984;59.928;30.306;2023-05-29T00:01:46;101220.16;;;12.68;53.27
41250;BME280;26984;59.928;30.306;2023-05-29T00:04:14;101220.81;;;12.64;53.43
41250;BME280;26984;59.928;30.306;2023-05-29T00:06:41;101214.81;;;12.55;53.88
41250;BME280;26984;59.928;30.306;2023-05-29T00:09:10;101215.25;;;12.52;54.48
41250;BME280;26984;59.928;30.306;2023-05-29T00:11:37;101207.78;;;12.48;54.82
41250;BME280;26984;59.928;30.306;2023-05-29T00:14:06;101217.13;;;12.52;55.08
41250;BME280;26984;59.928;30.306;2023-05-29T00:16:33;101212.97;;;12.56;55.24
41250;BME280;26984;59.928;30.306;2023-05-29T00:19:03;101215.47;;;12.51;55.30
41250;BME280;26984;59.928;30.306;2023-05-29T00:21:31;101214.66;;;12.50;55.60
41250;BME280;26984;59.928;30.306;2023-05-29T00:23:58;101218.81;;;12.53;55.33
41250;BME280;26984;59.928;30.306;2023-05-29T00:26:27;101212.31;;;12.60;54.93
41250;BME280;26984;59.928;30.306;2023-05-29T00:28:55;101220.22;;;12.55;55.33
41250;BME280;26984;59.928;30.306;2023-05-29T00:31:23;101215.03;;;12.54;55.34
41250;BME280;26984;59.928;30.306;2023-05-29T00:33:51;101211.31;;;12.48;55.84
41250;BME280;26984;59.928;30.306;2023-05-29T00:36:18;101218.56;;;12.54;56.20
41250;BME280;26984;59.928;30.306;2023-05-29T00:38:46;101215.63;;;12.62;56.13
41250;BME280;26984;59.928;30.306;2023-05-29T00:41:14;101222.28;;;12.66;56.49
41250;BME280;26984;59.928;30.306;2023-05-29T00:43:43;101221.19;;;12.74;57.09
41250;BME280;26984;59.928;30.306;2023-05-29T00:46:11;101226.38;;;12.76;57.23
41250;BME280;26984;59.928;30.306;2023-05-29T00:48:39;101227.63;;;12.73;57.73
41250;BME280;26984;59.928;30.306;2023-05-29T00:51:07;101229.72;;;12.71;58.90
41250;BME280;26984;59.928;30.306;2023-05-29T00:53:36;101224.13;;;12.66;59.60
41250;BME280;26984;59.928;30.306;2023-05-29T00:56:04;101218.38;;;12.56;60.02
41250;BME280;26984;59.928;30.306;2023-05-29T00:58:32;101209.44;;;12.49;60.90
41250;BME280;26984;59.928;30.306;2023-05-29T01:01:02;101214.66;;;12.43;62.32
41250;BME280;26984;59.928;30.306;2023-05-29T01:03:30;101224.22;;;12.46;63.35
41250;BME280;26984;59.928;30.306;2023-05-29T01:05:58;101215.72;;;12.42;64.62
41250;BME280;26984;59.928;30.306;2023-05-29T01:08:26;101217.00;;;12.33;64.68
41250;BME280;26984;59.928;30.306;2023-05-29T01:10:55;101218.44;;;12.36;65.96
41250;BME280;26984;59.928;30.306;2023-05-29T01:13:24;101210.78;;;12.26;66.18
41250;BME280;26984;59.928;30.306;2023-05-29T01:15:56;101211.59;;;12.27;67.12
41250;BME280;26984;59.928;30.306;2023-05-29T01:18:30;101211.59;;;12.27;68.18
41250;BME280;26984;59.928;30.306;2023-05-29T01:21:00;101221.41;;;12.28;69.21
41250;BME280;26984;59.928;30.306;2023-05-29T01:29:42;101218.47;;;12.22;71.82
41250;BME280;26984;59.928;30.306;2023-05-29T01:32:11;101213.88;;;12.30;72.74
41250;BME280;26984;59.928;30.306;2023-05-29T01:34:39;101215.13;;;12.27;73.54
41250;BME280;26984;59.928;30.306;2023-05-29T01:37:06;101217.44;;;12.23;74.06
41250;BME280;26984;59.928;30.306;2023-05-29T01:39:33;101228.06;;;12.18;75.03
41250;BME280;26984;59.928;30.306;2023-05-29T01:42:01;101219.53;;;12.21;77.07
41250;BME280;26984;59.928;30.306;2023-05-29T01:44:29;101218.47;;;12.22;78.44
41250;BME280;26984;59.928;30.306;2023-05-29T01:46:59;101228.28;;;12.17;79.67
41250;BME280;26984;59.928;30.306;2023-05-29T01:49:27;101227.25;;;12.11;80.89
41250;BME280;26984;59.928;30.306;2023-05-29T01:51:56;101227.66;;;12.08;82.13
41250;BME280;26984;59.928;30.306;2023-05-29T01:54:24;101227.06;;;12.06;83.02
41250;BME280;26984;59.928;30.306;2023-05-29T01:56:51;101227.50;;;12.03;84.02
41250;BME280;26984;59.928;30.306;2023-05-29T01:59:19;101229.78;;;12.06;85.66
41250;BME280;26984;59.928;30.306;2023-05-29T02:01:48;101239.53;;;12.07;87.18
41250;BME280;26984;59.928;30.306;2023-05-29T02:04:17;101229.97;;;12.05;88.04
41250;BME280;26984;59.928;30.306;2023-05-29T02:06:44;101232.66;;;11.98;90.10
41250;BME280;26984;59.928;30.306;2023-05-29T02:09:12;101246.41;;;11.96;91.96
41250;BME280;26984;59.928;30.306;2023-05-29T02:11:40;101243.69;;;11.83;94.64
41250;BME280;26984;59.928;30.306;2023-05-29T02:14:11;101232.47;;;11.73;96.58
41250;BME280;26984;59.928;30.306;2023-05-29T02:16:39;101233.53;;;11.72;98.62
41250;BME280;26984;59.928;30.306;2023-05-29T02:19:06;101241.63;;;11.72;99.74
41250;BME280;26984;59.928;30.306;2023-05-29T02:21:37;101238.69;;;11.80;100.00
41250;BME280;26984;59.928;30.306;2023-05-29T02:24:05;101234.56;;;11.78;100.00
41250;BME280;26984;59.928;30.306;2023-05-29T02:26:33;101229.78;;;11.86;100.00
41250;BME280;26984;59.928;30.306;2023-05-29T02:29:02;101240.38;;;11.81;100.00
41250;BME280;26984;59.928;30.306;2023-05-29T02:31:32;101239.97;;;11.84;100.00
41250;BME280;26984;59.928;30.306;2023-05-29T02:34:00;101244.53;;;11.90;100.00
41250;BME280;26984;59.928;30.306;2023-05-29T02:36:27;101252.44;;;11.92;100.00
41250;BME280;26984;59.928;30.306;2023-05-29T02:38:59;101251.81;;;11.90;100.00
41250;BME280;26984;59.928;30.306;2023-05-29T02:41:26;101254.09;;;11.93;100.00
41250;BME280;26984;59.928;30.306;2023-05-29T02:43:54;101248.28;;;11.89;100.00
41250;BME280;26984;59.928;30.306;2023-05-29T02:46:21;101253.47;;;11.84;100.00
41250;BME280;26984;59.928;30.306;2023-05-29T02:48:49;101254.09;;;11.86;100.00
41250;BME280;26984;59.928;30.306;2023-05-29T02:51:16;101256.38;;;11.89;100.00
41250;BME280;26984;59.928;30.306;2023-05-29T02:53:44;101242.66;;;11.91;100.00
41250;BME280;26984;59.928;30.306;2023-05-29T02:56:12;101242.06;;;11.89;100.00
41250;BME280;26984;59.928;30.306;2023-05-29T02:58:41;101246.19;;;11.91;100.00
41250;BME280;26984;59.928;30.306;2023-05-29T03:01:09;101244.53;;;11.97;100.00
41250;BME280;26984;59.928;30.306;2023-05-29T03:03:36;101244.09;;;12.00;100.00
41250;BME280;26984;59.928;30.306;2023-05-29T03:06:07;101249.91;;;12.04;100.00
41250;BME280;26984;59.928;30.306;2023-05-29T03:08:36;101242.41;;;12.12;100.00
41250;BME280;26984;59.928;30.306;2023-05-29T03:11:06;101240.97;;;12.10;100.00
41250;BME280;26984;59.928;30.306;2023-05-29T03:13:36;101244.09;;;12.13;100.00
41250;BME280;26984;59.928;30.306;2023-05-29T03:16:06;101247.78;;;12.19;100.00
41250;BME280;26984;59.928;30.306;2023-05-29T03:18:36;101250.31;;;12.20;100.00
41250;BME280;26984;59.928;30.306;2023-05-29T03:21:04;101244.09;;;12.13;100.00
41250;BME280;26984;59.928;30.306;2023-05-29T03:23:33;101248.84;;;12.11;100.00
41250;BME280;26984;59.928;30.306;2023-05-29T03:26:01;101252.16;;;12.20;100.00
41250;BME280;26984;59.928;30.306;2023-05-29T03:28:30;101241.41;;;12.07;100.00
41250;BME280;26984;59.928;30.306;2023-05-29T03:31:02;101236.81;;;12.07;100.00
41250;BME280;26984;59.928;30.306;2023-05-29T03:33:29;101242.59;;;12.24;100.00
41250;BME280;26984;59.928;30.306;2023-05-29T03:36:15;101248.19;;;12.22;100.00
41250;BME280;26984;59.928;30.306;2023-05-29T03:38:44;101254.81;;;12.33;100.00
41250;BME280;26984;59.928;30.306;2023-05-29T03:41:11;101249.56;;;12.45;100.00
41250;BME280;26984;59.928;30.306;2023-05-29T03:43:39;101246.00;;;12.58;100.00
41250;BME280;26984;59.928;30.306;2023-05-29T03:46:08;101250.75;;;12.62;100.00
41250;BME280;26984;59.928;30.306;2023-05-29T03:48:37;101248.84;;;12.69;100.00
41250;BME280;26984;59.928;30.306;2023-05-29T03:51:04;101252.63;;;12.62;100.00
41250;BME280;26984;59.928;30.306;2023-05-29T03:53:35;101252.44;;;12.63;100.00
41250;BME280;26984;59.928;30.306;2023-05-29T03:56:03;101268.25;;;12.60;100.00
41250;BME280;26984;59.928;30.306;2023-05-29T03:58:32;101261.34;;;12.70;100.00
41250;BME280;26984;59.928;30.306;2023-05-29T04:01:01;101257.94;;;12.88;100.00
41250;BME280;26984;59.928;30.306;2023-05-29T04:03:32;101248.25;;;13.06;100.00
41250;BME280;26984;59.928;30.306;2023-05-29T04:05:59;101255.03;;;13.15;100.00
41250;BME280;26984;59.928;30.306;2023-05-29T04:08:27;101262.41;;;13.01;100.00
41250;BME280;26984;59.928;30.306;2023-05-29T04:10:54;101261.88;;;12.86;100.00
41250;BME280;26984;59.928;30.306;2023-05-29T04:13:22;101258.09;;;12.93;100.00
41250;BME280;26984;59.928;30.306;2023-05-29T04:15:49;101256.41;;;12.99;100.00
41250;BME280;26984;59.928;30.306;2023-05-29T04:18:20;101256.47;;;12.86;100.00
41250;BME280;26984;59.928;30.306;2023-05-29T04:20:49;101258.41;;;12.72;100.00
41250;BME280;26984;59.928;30.306;2023-05-29T04:23:17;101254.72;;;12.66;100.00
41250;BME280;26984;59.928;30.306;2023-05-29T04:25:46;101268.03;;;12.55;100.00
41250;BME280;26984;59.928;30.306;2023-05-29T04:28:17;101259.16;;;12.41;100.00
41250;BME280;26984;59.928;30.306;2023-05-29T04:30:47;101272.25;;;12.37;100.00
41250;BME280;26984;59.928;30.306;2023-05-29T04:33:15;101267.75;;;12.25;100.00
41250;BME280;26984;59.928;30.306;2023-05-29T04:35:47;101262.91;;;12.33;100.00
41250;BME280;26984;59.928;30.306;2023-05-29T04:38:18;101260.34;;;12.58;100.00
41250;BME280;26984;59.928;30.306;2023-05-29T04:40:51;101268.84;;;12.62;100.00
41250;BME280;26984;59.928;30.306;2023-05-29T04:43:24;101280.09;;;12.59;100.00
41250;BME280;26984;59.928;30.306;2023-05-29T04:46:01;101282.41;;;12.49;100.00
41250;BME280;26984;59.928;30.306;2023-05-29T04:48:30;101283.84;;;12.51;100.00
41250;BME280;26984;59.928;30.306;2023-05-29T04:50:58;101280.53;;;12.56;100.00
41250;BME280;26984;59.928;30.306;2023-05-29T04:53:27;101274.66;;;12.65;100.00
41250;BME280;26984;59.928;30.306;2023-05-29T04:55:56;101278.59;;;12.69;100.00
41250;BME280;26984;59.928;30.306;2023-05-29T04:58:25;101273.66;;;12.60;100.00
41250;BME280;26984;59.928;30.306;2023-05-29T05:00:53;101272.19;;;12.57;100.00
41250;BME280;26984;59.928;30.306;2023-05-29T05:03:27;101275.47;;;12.66;100.00
41250;BME280;26984;59.928;30.306;2023-05-29T05:05:56;101285.16;;;12.87;100.00
41250;BME280;26984;59.928;30.306;2023-05-29T05:08:25;101283.28;;;12.87;100.00
41250;BME280;26984;59.928;30.306;2023-05-29T05:10:54;101274.59;;;12.79;100.00
41250;BME280;26984;59.928;30.306;2023-05-29T05:13:22;101275.78;;;12.96;100.00
41250;BME280;26984;59.928;30.306;2023-05-29T05:15:51;101279.59;;;13.20;100.00
41250;BME280;26984;59.928;30.306;2023-05-29T05:18:18;101270.59;;;13.26;100.00
41250;BME280;26984;59.928;30.306;2023-05-29T05:20:54;101279.13;;;13.23;100.00
41250;BME280;26984;59.928;30.306;2023-05-29T05:23:22;101283.56;;;13.17;100.00
41250;BME280;26984;59.928;30.306;2023-05-29T05:25:50;101290.69;;;13.05;100.00
41250;BME280;26984;59.928;30.306;2023-05-29T05:28:19;101286.53;;;13.09;100.00
41250;BME280;26984;59.928;30.306;2023-05-29T05:30:47;101293.88;;;12.96;100.00
41250;BME280;26984;59.928;30.306;2023-05-29T05:33:14;101283.16;;;13.14;100.00
41250;BME280;26984;59.928;30.306;2023-05-29T05:35:42;101282.25;;;13.27;100.00
41250;BME280;26984;59.928;30.306;2023-05-29T05:38:09;101275.81;;;13.28;100.00
41250;BME280;26984;59.928;30.306;2023-05-29T05:40:37;101277.38;;;13.42;100.00
41250;BME280;26984;59.928;30.306;2023-05-29T05:43:16;101276.28;;;13.50;100.00
41250;BME280;26984;59.928;30.306;2023-05-29T05:46:05;101285.56;;;13.35;100.00
41250;BME280;26984;59.928;30.306;2023-05-29T05:48:35;101285.81;;;13.27;100.00
41250;BME280;26984;59.928;30.306;2023-05-29T05:51:02;101284.28;;;13.38;100.00
41250;BME280;26984;59.928;30.306;2023-05-29T05:53:31;101299.13;;;13.29;100.00
41250;BME280;26984;59.928;30.306;2023-05-29T05:55:58;101283.28;;;13.32;100.00
41250;BME280;26984;59.928;30.306;2023-05-29T05:58:26;101277.88;;;13.57;100.00
41250;BME280;26984;59.928;30.306;2023-05-29T06:00:56;101285.22;;;13.75;100.00
41250;BME280;26984;59.928;30.306;2023-05-29T06:03:26;101286.44;;;13.79;100.00
41250;BME280;26984;59.928;30.306;2023-05-29T06:06:01;101279.22;;;13.73;100.00
41250;BME280;26984;59.928;30.306;2023-05-29T06:08:29;101284.06;;;13.64;100.00
41250;BME280;26984;59.928;30.306;2023-05-29T06:10:57;101281.25;;;13.78;100.00
41250;BME280;26984;59.928;30.306;2023-05-29T06:13:25;101282.38;;;13.70;100.00
41250;BME280;26984;59.928;30.306;2023-05-29T06:15:58;101293.75;;;13.54;100.00
41250;BME280;26984;59.928;30.306;2023-05-29T06:18:27;101287.94;;;13.50;100.00
41250;BME280;26984;59.928;30.306;2023-05-29T06:20:54;101281.75;;;13.43;100.00
41250;BME280;26984;59.928;30.306;2023-05-29T06:23:22;101279.81;;;13.50;100.00
41250;BME280;26984;59.928;30.306;2023-05-29T06:25:50;101278.31;;;13.54;100.00
41250;BME280;26984;59.928;30.306;2023-05-29T06:28:18;101287.44;;;13.60;100.00
41250;BME280;26984;59.928;30.306;2023-05-29T06:30:46;101285.28;;;13.69;100.00
41250;BME280;26984;59.928;30.306;2023-05-29T06:33:14;101287.84;;;13.88;100.00
41250;BME280;26984;59.928;30.306;2023-05-29T06:35:43;101287.72;;;14.02;100.00
41250;BME280;26984;59.928;30.306;2023-05-29T06:38:10;101286.31;;;14.18;100.00
41250;BME280;26984;59.928;30.306;2023-05-29T06:40:39;101283.41;;;14.37;100.00
41250;BME280;26984;59.928;30.306;2023-05-29T06:43:07;101293.28;;;14.50;100.00
41250;BME280;26984;59.928;30.306;2023-05-29T06:45:38;101281.75;;;14.55;100.00
41250;BME280;26984;59.928;30.306;2023-05-29T06:48:07;101278.94;;;14.43;100.00
41250;BME280;26984;59.928;30.306;2023-05-29T06:50:34;101288.34;;;14.41;100.00
41250;BME280;26984;59.928;30.306;2023-05-29T06:53:17;101291.53;;;14.37;100.00
41250;BME280;26984;59.928;30.306;2023-05-29T06:55:49;101297.06;;;14.24;100.00
41250;BME280;26984;59.928;30.306;2023-05-29T06:58:17;101297.97;;;14.18;100.00
41250;BME280;26984;59.928;30.306;2023-05-29T07:04:06;101298.41;;;14.15;100.00
41250;BME280;26984;59.928;30.306;2023-05-29T07:06:34;101299.34;;;14.27;100.00
41250;BME280;26984;59.928;30.306;2023-05-29T07:09:03;101312.28;;;14.44;100.00
41250;BME280;26984;59.928;30.306;2023-05-29T07:11:31;101306.75;;;14.57;100.00
41250;BME280;26984;59.928;30.306;2023-05-29T07:13:58;101305.78;;;14.70;100.00
41250;BME280;26984;59.928;30.306;2023-05-29T07:16:26;101309.16;;;14.65;100.00
41250;BME280;26984;59.928;30.306;2023-05-29T07:19:01;101308.31;;;14.65;100.00
41250;BME280;26984;59.928;30.306;2023-05-29T07:21:31;101306.97;;;14.74;100.00
41250;BME280;26984;59.928;30.306;2023-05-29T07:23:59;101317.09;;;14.67;100.00
41250;BME280;26984;59.928;30.306;2023-05-29T07:26:28;101323.63;;;14.59;100.00
41250;BME280;26984;59.928;30.306;2023-05-29T07:28:56;101320.94;;;14.59;100.00
41250;BME280;26984;59.928;30.306;2023-05-29T07:31:24;101328.88;;;14.72;100.00
41250;BME280;26984;59.928;30.306;2023-05-29T07:33:52;101324.91;;;14.75;100.00
41250;BME280;26984;59.928;30.306;2023-05-29T07:36:20;101325.13;;;14.55;100.00
41250;BME280;26984;59.928;30.306;2023-05-29T07:38:50;101327.38;;;14.58;100.00
41250;BME280;26984;59.928;30.306;2023-05-29T07:41:19;101328.50;;;14.69;100.00
41250;BME280;26984;59.928;30.306;2023-05-29T07:43:53;101323.63;;;14.77;100.00
41250;BME280;26984;59.928;30.306;2023-05-29T07:46:22;101322.63;;;14.72;100.00
41250;BME280;26984;59.928;30.306;2023-05-29T07:48:55;101319.56;;;14.50;100.00
41250;BME280;26984;59.928;30.306;2023-05-29T07:51:23;101318.66;;;14.56;100.00
41250;BME280;26984;59.928;30.306;2023-05-29T07:53:51;101345.19;;;14.47;100.00
41250;BME280;26984;59.928;30.306;2023-05-29T07:56:19;101334.75;;;14.51;100.00
41250;BME280;26984;59.928;30.306;2023-05-29T07:58:47;101338.41;;;14.63;100.00
41250;BME280;26984;59.928;30.306;2023-05-29T08:01:16;101315.19;;;14.67;100.00
41250;BME280;26984;59.928;30.306;2023-05-29T08:03:45;101336.50;;;14.64;100.00
41250;BME280;26984;59.928;30.306;2023-05-29T08:06:25;101342.25;;;14.55;99.06
41250;BME280;26984;59.928;30.306;2023-05-29T08:08:53;101326.75;;;14.37;99.66
41250;BME280;26984;59.928;30.306;2023-05-29T08:11:21;101332.63;;;14.34;100.00
41250;BME280;26984;59.928;30.306;2023-05-29T08:13:49;101341.00;;;14.08;100.00
41250;BME280;26984;59.928;30.306;2023-05-29T08:16:19;101337.06;;;14.04;100.00
41250;BME280;26984;59.928;30.306;2023-05-29T08:18:48;101352.44;;;14.10;97.91
41250;BME280;26984;59.928;30.306;2023-05-29T08:21:15;101334.38;;;14.04;90.62
41250;BME280;26984;59.928;30.306;2023-05-29T08:23:43;101329.34;;;14.26;86.32
41250;BME280;26984;59.928;30.306;2023-05-29T08:26:11;101337.31;;;14.46;86.92
41250;BME280;26984;59.928;30.306;2023-05-29T08:28:39;101338.03;;;14.59;86.12
41250;BME280;26984;59.928;30.306;2023-05-29T08:31:06;101346.47;;;14.70;82.22
41250;BME280;26984;59.928;30.306;2023-05-29T08:33:36;101341.56;;;14.60;79.21
41250;BME280;26984;59.928;30.306;2023-05-29T08:36:04;101335.03;;;14.43;81.64
41250;BME280;26984;59.928;30.306;2023-05-29T08:38:31;101338.81;;;14.42;80.27
41250;BME280;26984;59.928;30.306;2023-05-29T08:40:59;101328.09;;;14.47;78.90
41250;BME280;26984;59.928;30.306;2023-05-29T08:43:28;101337.41;;;14.76;76.82
41250;BME280;26984;59.928;30.306;2023-05-29T08:45:58;101340.09;;;14.76;76.66
41250;BME280;26984;59.928;30.306;2023-05-29T08:48:26;101356.19;;;14.59;77.86
41250;BME280;26984;59.928;30.306;2023-05-29T08:50:56;101341.75;;;14.58;79.96
41250;BME280;26984;59.928;30.306;2023-05-29T08:53:24;101326.63;;;14.51;81.72
41250;BME280;26984;59.928;30.306;2023-05-29T08:55:52;101338.75;;;14.48;81.12
41250;BME280;26984;59.928;30.306;2023-05-29T08:58:21;101332.31;;;14.43;80.07
41250;BME280;26984;59.928;30.306;2023-05-29T09:00:49;101328.09;;;14.47;78.56
41250;BME280;26984;59.928;30.306;2023-05-29T09:03:17;101334.31;;;14.54;78.27
41250;BME280;26984;59.928;30.306;2023-05-29T09:05:46;101319.41;;;14.81;76.08
41250;BME280;26984;59.928;30.306;2023-05-29T09:08:15;101312.84;;;15.19;73.81
41250;BME280;26984;59.928;30.306;2023-05-29T09:10:44;101335.03;;;15.16;71.38
41250;BME280;26984;59.928;30.306;2023-05-29T09:13:12;101339.88;;;14.96;71.62
41250;BME280;26984;59.928;30.306;2023-05-29T09:15:40;101321.13;;;14.76;72.13
41250;BME280;26984;59.928;30.306;2023-05-29T09:18:09;101336.78;;;14.92;72.66
41250;BME280;26984;59.928;30.306;2023-05-29T09:20:36;101340.94;;;14.95;73.85
41250;BME280;26984;59.928;30.306;2023-05-29T09:23:06;101350.34;;;14.92;74.95
41250;BME280;26984;59.928;30.306;2023-05-29T09:25:41;101335.16;;;14.91;73.68
41250;BME280;26984;59.928;30.306;2023-05-29T09:28:09;101337.38;;;15.13;72.23
41250;BME280;26984;59.928;30.306;2023-05-29T09:33:55;101350.97;;;14.76;66.13
41250;BME280;26984;59.928;30.306;2023-05-29T09:36:28;101329.50;;;14.74;67.52
41250;BME280;26984;59.928;30.306;2023-05-29T09:38:56;101330.78;;;14.72;66.03
41250;BME280;26984;59.928;30.306;2023-05-29T09:41:25;101353.97;;;14.86;63.13
41250;BME280;26984;59.928;30.306;2023-05-29T09:43:53;101340.50;;;14.98;61.54
41250;BME280;26984;59.928;30.306;2023-05-29T09:46:21;101344.78;;;15.05;56.86
41250;BME280;26984;59.928;30.306;2023-05-29T09:48:49;101334.94;;;15.04;58.91
41250;BME280;26984;59.928;30.306;2023-05-29T09:51:20;101341.44;;;15.03;59.84
41250;BME280;26984;59.928;30.306;2023-05-29T09:53:49;101351.91;;;15.18;52.71
41250;BME280;26984;59.928;30.306;2023-05-29T09:56:17;101341.06;;;15.00;50.31
41250;BME280;26984;59.928;30.306;2023-05-29T09:58:46;101340.53;;;15.09;49.75
41250;BME280;26984;59.928;30.306;2023-05-29T10:01:14;101350.94;;;15.13;48.14
41250;BME280;26984;59.928;30.306;2023-05-29T10:03:42;101337.09;;;15.02;49.78
41250;BME280;26984;59.928;30.306;2023-05-29T10:06:10;101344.84;;;14.99;49.30
41250;BME280;26984;59.928;30.306;2023-05-29T10:08:41;101337.84;;;14.91;50.72
41250;BME280;26984;59.928;30.306;2023-05-29T10:11:14;101347.88;;;14.72;50.81
41250;BME280;26984;59.928;30.306;2023-05-29T10:13:47;101344.78;;;14.69;52.75
41250;BME280;26984;59.928;30.306;2023-05-29T10:16:15;101361.16;;;14.80;56.03
41250;BME280;26984;59.928;30.306;2023-05-29T10:18:47;101345.38;;;14.89;56.24
41250;BME280;26984;59.928;30.306;2023-05-29T10:21:17;101350.13;;;14.94;58.30
41250;BME280;26984;59.928;30.306;2023-05-29T10:23:46;101345.84;;;14.86;59.06
41250;BME280;26984;59.928;30.306;2023-05-29T10:26:15;101344.06;;;14.80;59.92
41250;BME280;26984;59.928;30.306;2023-05-29T10:28:46;101348.53;;;14.86;57.39
41250;BME280;26984;59.928;30.306;2023-05-29T10:31:19;101357.69;;;14.73;57.33
41250;BME280;26984;59.928;30.306;2023-05-29T10:33:52;101355.88;;;14.67;60.38
41250;BME280;26984;59.928;30.306;2023-05-29T10:36:25;101347.97;;;14.66;62.06
41250;BME280;26984;59.928;30.306;2023-05-29T10:38:58;101362.56;;;14.83;60.32
41250;BME280;26984;59.928;30.306;2023-05-29T10:41:29;101373.56;;;14.88;59.00
41250;BME280;26984;59.928;30.306;2023-05-29T10:43:58;101360.09;;;14.81;57.79
41250;BME280;26984;59.928;30.306;2023-05-29T10:49:16;101366.53;;;14.62;59.99
41250;BME280;26984;59.928;30.306;2023-05-29T10:51:44;101362.94;;;14.68;64.27
41250;BME280;26984;59.928;30.306;2023-05-29T10:54:12;101378.19;;;14.69;66.19
41250;BME280;26984;59.928;30.306;2023-05-29T10:56:40;101370.63;;;14.71;66.04
41250;BME280;26984;59.928;30.306;2023-05-29T10:59:08;101396.72;;;14.47;71.66
41250;BME280;26984;59.928;30.306;2023-05-29T11:01:38;101387.03;;;14.58;72.41
41250;BME280;26984;59.928;30.306;2023-05-29T11:06:54;101391.81;;;14.63;72.46
41250;BME280;26984;59.928;30.306;2023-05-29T11:09:28;101397.28;;;14.31;72.89
41250;BME280;26984;59.928;30.306;2023-05-29T11:12:15;101424.22;;;14.26;70.42
41250;BME280;26984;59.928;30.306;2023-05-29T11:14:54;101404.75;;;14.35;67.96
41250;BME280;26984;59.928;30.306;2023-05-29T11:17:29;101402.06;;;14.10;70.53
41250;BME280;26984;59.928;30.306;2023-05-29T11:19:57;101390.66;;;14.27;68.35
41250;BME280;26984;59.928;30.306;2023-05-29T11:22:29;101394.00;;;14.47;67.05
41250;BME280;26984;59.928;30.306;2023-05-29T11:25:01;101404.22;;;14.52;68.24
41250;BME280;26984;59.928;30.306;2023-05-29T11:27:30;101402.75;;;14.49;60.43
41250;BME280;26984;59.928;30.306;2023-05-29T11:29:59;101407.91;;;14.32;60.73
41250;BME280;26984;59.928;30.306;2023-05-29T11:32:27;101398.44;;;14.42;56.95
41250;BME280;26984;59.928;30.306;2023-05-29T11:34:55;101401.50;;;14.52;56.49
41250;BME280;26984;59.928;30.306;2023-05-29T11:37:23;101405.91;;;14.46;56.45
41250;BME280;26984;59.928;30.306;2023-05-29T11:39:52;101392.09;;;14.48;55.08
41250;BME280;26984;59.928;30.306;2023-05-29T11:42:20;101398.50;;;14.60;53.66
41250;BME280;26984;59.928;30.306;2023-05-29T11:44:47;101406.97;;;14.45;53.93
41250;BME280;26984;59.928;30.306;2023-05-29T11:47:15;101395.56;;;14.36;55.62
41250;BME280;26984;59.928;30.306;2023-05-29T11:49:42;101381.25;;;14.29;55.59
41250;BME280;26984;59.928;30.306;2023-05-29T11:52:12;101388.44;;;14.42;54.96
41250;BME280;26984;59.928;30.306;2023-05-29T11:54:40;101399.09;;;14.62;54.88
41250;BME280;26984;59.928;30.306;2023-05-29T11:57:18;101394.44;;;14.69;53.12
41250;BME280;26984;59.928;30.306;2023-05-29T11:59:46;101387.44;;;14.80;50.76
41250;BME280;26984;59.928;30.306;2023-05-29T12:02:13;101382.31;;;15.08;49.77
41250;BME280;26984;59.928;30.306;2023-05-29T12:04:41;101392.69;;;15.12;48.84
41250;BME280;26984;59.928;30.306;2023-05-29T12:07:16;101397.84;;;15.01;47.95
41250;BME280;26984;59.928;30.306;2023-05-29T12:09:44;101399.19;;;14.92;49.24
41250;BME280;26984;59.928;30.306;2023-05-29T12:12:11;101380.28;;;14.85;48.40
41250;BME280;26984;59.928;30.306;2023-05-29T12:14:40;101391.38;;;14.84;47.59
41250;BME280;26984;59.928;30.306;2023-05-29T12:17:07;101405.00;;;14.77;45.88
41250;BME280;26984;59.928;30.306;2023-05-29T12:19:35;101376.75;;;14.67;44.46
41250;BME280;26984;59.928;30.306;2023-05-29T12:22:03;101390.44;;;14.72;44.22
41250;BME280;26984;59.928;30.306;2023-05-29T12:24:31;101393.41;;;14.89;43.22
41250;BME280;26984;59.928;30.306;2023-05-29T12:26:58;101384.88;;;14.85;42.29
41250;BME280;26984;59.928;30.306;2023-05-29T12:29:29;101396.31;;;14.69;44.40
41250;BME280;26984;59.928;30.306;2023-05-29T12:31:59;101399.56;;;14.96;45.47
41250;BME280;26984;59.928;30.306;2023-05-29T12:34:26;101385.78;;;15.16;44.63
41250;BME280;26984;59.928;30.306;2023-05-29T12:36:53;101395.69;;;15.22;44.07
41250;BME280;26984;59.928;30.306;2023-05-29T12:39:21;101391.50;;;15.07;42.95
41250;BME280;26984;59.928;30.306;2023-05-29T12:41:50;101420.44;;;15.14;45.12
41250;BME280;26984;59.928;30.306;2023-05-29T12:44:21;101401.84;;;14.99;47.34
41250;BME280;26984;59.928;30.306;2023-05-29T12:46:56;101403.41;;;15.06;47.71
41250;BME280;26984;59.928;30.306;2023-05-29T12:49:25;101404.16;;;15.14;46.97
41250;BME280;26984;59.928;30.306;2023-05-29T12:51:54;101400.09;;;15.23;44.50
41250;BME280;26984;59.928;30.306;2023-05-29T12:54:22;101414.19;;;15.13;43.79
41250;BME280;26984;59.928;30.306;2023-05-29T12:56:49;101413.59;;;14.93;44.46
41250;BME280;26984;59.928;30.306;2023-05-29T12:59:17;101413.28;;;14.82;44.96
41250;BME280;26984;59.928;30.306;2023-05-29T13:01:45;101426.63;;;14.66;45.04
41250;BME280;26984;59.928;30.306;2023-05-29T13:04:12;101410.78;;;14.63;45.44